sensor_id;sensor_type;location;lat;lon;timestamp;temperature;humidity
47813;DHT22;34221;45.296;9.516;2023-07-13T00:00:13;23.50;89.60
47813;DHT22;34221;45.296;9.516;2023-07-13T00:00:30;23.50;89.70
47813;DHT22;34221;45.296;9.516;2023-07-13T00:00:47;23.50;89.60
47813;DHT22;34221;45.296;9.516;2023-07-13T00:01:01;23.50;89.70
47813;DHT22;34221;45.296;9.516;2023-07-13T00:01:17;23.50;89.50
47813;DHT22;34221;45.296;9.516;2023-07-13T00:01:32;23.50;89.50
47813;DHT22;34221;45.296;9.516;2023-07-13T00:01:47;23.50;89.60
47813;DHT22;34221;45.296;9.516;2023-07-13T00:02:04;23.50;89.70
47813;DHT22;34221;45.296;9.516;2023-07-13T00:02:19;23.50;89.80
47813;DHT22;34221;45.296;9.516;2023-07-13T00:02:34;23.50;89.80
47813;DHT22;34221;45.296;9.516;2023-07-13T00:02:49;23.50;89.70
47813;DHT22;34221;45.296;9.516;2023-07-13T00:03:04;23.50;89.70
47813;DHT22;34221;45.296;9.516;2023-07-13T00:03:19;23.50;89.50
47813;DHT22;34221;45.296;9.516;2023-07-13T00:03:34;23.50;89.50
47813;DHT22;34221;45.296;9.516;2023-07-13T00:03:49;23.50;89.70
47813;DHT22;34221;45.296;9.516;2023-07-13T00:04:04;23.50;89.80
47813;DHT22;34221;45.296;9.516;2023-07-13T00:04:22;23.50;89.80
47813;DHT22;34221;45.296;9.516;2023-07-13T00:04:37;23.50;89.80
47813;DHT22;34221;45.296;9.516;2023-07-13T00:04:52;23.50;89.80
47813;DHT22;34221;45.296;9.516;2023-07-13T00:05:08;23.50;89.90
47813;DHT22;34221;45.296;9.516;2023-07-13T00:05:23;23.50;89.70
47813;DHT22;34221;45.296;9.516;2023-07-13T00:05:39;23.50;89.50
47813;DHT22;34221;45.296;9.516;2023-07-13T00:06:00;23.60;89.70
47813;DHT22;34221;45.296;9.516;2023-07-13T00:06:15;23.60;89.70
47813;DHT22;34221;45.296;9.516;2023-07-13T00:06:30;23.60;89.70
47813;DHT22;34221;45.296;9.516;2023-07-13T00:06:47;23.60;89.70
47813;DHT22;34221;45.296;9.516;2023-07-13T00:07:02;23.60;89.40
47813;DHT22;34221;45.296;9.516;2023-07-13T00:07:17;23.60;89.20
47813;DHT22;34221;45.296;9.516;2023-07-13T00:07:35;23.60;89.20
47813;DHT22;34221;45.296;9.516;2023-07-13T00:07:51;23.50;89.10
47813;DHT22;34221;45.296;9.516;2023-07-13T00:08:07;23.50;89.10
47813;DHT22;34221;45.296;9.516;2023-07-13T00:08:23;23.50;89.10
47813;DHT22;34221;45.296;9.516;2023-07-13T00:08:38;23.50;89.30
47813;DHT22;34221;45.296;9.516;2023-07-13T00:08:52;23.50;89.30
47813;DHT22;34221;45.296;9.516;2023-07-13T00:09:07;23.50;89.50
47813;DHT22;34221;45.296;9.516;2023-07-13T00:09:22;23.50;89.60
47813;DHT22;34221;45.296;9.516;2023-07-13T00:09:38;23.60;89.70
47813;DHT22;34221;45.296;9.516;2023-07-13T00:09:52;23.60;89.80
47813;DHT22;34221;45.296;9.516;2023-07-13T00:10:08;23.50;89.90
47813;DHT22;34221;45.296;9.516;2023-07-13T00:10:24;23.60;89.80
47813;DHT22;34221;45.296;9.516;2023-07-13T00:10:40;23.60;89.60
47813;DHT22;34221;45.296;9.516;2023-07-13T00:10:55;23.60;89.40
47813;DHT22;34221;45.296;9.516;2023-07-13T00:11:10;23.60;89.40
47813;DHT22;34221;45.296;9.516;2023-07-13T00:11:26;23.60;89.20
47813;DHT22;34221;45.296;9.516;2023-07-13T00:11:41;23.70;89.20
47813;DHT22;34221;45.296;9.516;2023-07-13T00:11:57;23.60;89.00
47813;DHT22;34221;45.296;9.516;2023-07-13T00:12:35;23.60;88.90
47813;DHT22;34221;45.296;9.516;2023-07-13T00:12:51;23.70;89.10
47813;DHT22;34221;45.296;9.516;2023-07-13T00:13:09;23.70;89.30
47813;DHT22;34221;45.296;9.516;2023-07-13T00:13:24;23.70;89.10
47813;DHT22;34221;45.296;9.516;2023-07-13T00:13:39;23.60;88.80
47813;DHT22;34221;45.296;9.516;2023-07-13T00:13:54;23.60;88.70
47813;DHT22;34221;45.296;9.516;2023-07-13T00:14:10;23.60;88.80
47813;DHT22;34221;45.296;9.516;2023-07-13T00:14:26;23.60;89.00
47813;DHT22;34221;45.296;9.516;2023-07-13T00:14:42;23.70;89.10
47813;DHT22;34221;45.296;9.516;2023-07-13T00:14:59;23.60;89.80
47813;DHT22;34221;45.296;9.516;2023-07-13T00:15:17;23.70;89.60
47813;DHT22;34221;45.296;9.516;2023-07-13T00:15:37;23.60;90.00
47813;DHT22;34221;45.296;9.516;2023-07-13T00:15:52;23.60;89.60
47813;DHT22;34221;45.296;9.516;2023-07-13T00:16:10;23.60;89.80
47813;DHT22;34221;45.296;9.516;2023-07-13T00:16:25;23.70;89.80
47813;DHT22;34221;45.296;9.516;2023-07-13T00:16:40;23.60;89.50
47813;DHT22;34221;45.296;9.516;2023-07-13T00:16:58;23.70;89.90
47813;DHT22;34221;45.296;9.516;2023-07-13T00:17:15;23.60;89.00
47813;DHT22;34221;45.296;9.516;2023-07-13T00:17:29;23.60;89.10
47813;DHT22;34221;45.296;9.516;2023-07-13T00:17:44;23.60;88.80
47813;DHT22;34221;45.296;9.516;2023-07-13T00:17:59;23.60;88.80
47813;DHT22;34221;45.296;9.516;2023-07-13T00:18:15;23.60;88.80
47813;DHT22;34221;45.296;9.516;2023-07-13T00:18:30;23.60;88.80
47813;DHT22;34221;45.296;9.516;2023-07-13T00:18:46;23.60;89.00
47813;DHT22;34221;45.296;9.516;2023-07-13T00:19:01;23.60;89.30
47813;DHT22;34221;45.296;9.516;2023-07-13T00:19:17;23.60;89.40
47813;DHT22;34221;45.296;9.516;2023-07-13T00:19:32;23.70;89.10
47813;DHT22;34221;45.296;9.516;2023-07-13T00:19:49;23.70;89.10
47813;DHT22;34221;45.296;9.516;2023-07-13T00:20:05;23.70;89.20
47813;DHT22;34221;45.296;9.516;2023-07-13T00:20:23;23.60;89.10
47813;DHT22;34221;45.296;9.516;2023-07-13T00:20:39;23.60;89.20
47813;DHT22;34221;45.296;9.516;2023-07-13T00:20:56;23.60;89.20
47813;DHT22;34221;45.296;9.516;2023-07-13T00:21:19;23.60;89.10
47813;DHT22;34221;45.296;9.516;2023-07-13T00:21:34;23.60;89.10
47813;DHT22;34221;45.296;9.516;2023-07-13T00:21:53;23.60;89.40
47813;DHT22;34221;45.296;9.516;2023-07-13T00:22:10;23.70;89.20
47813;DHT22;34221;45.296;9.516;2023-07-13T00:22:25;23.60;89.20
47813;DHT22;34221;45.296;9.516;2023-07-13T00:22:40;23.60;89.20
47813;DHT22;34221;45.296;9.516;2023-07-13T00:22:55;23.70;89.20
47813;DHT22;34221;45.296;9.516;2023-07-13T00:23:11;23.70;89.90
47813;DHT22;34221;45.296;9.516;2023-07-13T00:23:26;23.70;89.10
47813;DHT22;34221;45.296;9.516;2023-07-13T00:23:42;23.70;89.20
47813;DHT22;34221;45.296;9.516;2023-07-13T00:23:57;23.70;89.20
47813;DHT22;34221;45.296;9.516;2023-07-13T00:24:15;23.70;89.20
47813;DHT22;34221;45.296;9.516;2023-07-13T00:24:53;23.70;89.20
47813;DHT22;34221;45.296;9.516;2023-07-13T00:25:11;23.70;89.20
47813;DHT22;34221;45.296;9.516;2023-07-13T00:25:26;23.70;89.20
47813;DHT22;34221;45.296;9.516;2023-07-13T00:25:44;23.70;89.20
47813;DHT22;34221;45.296;9.516;2023-07-13T00:26:00;23.70;88.80
47813;DHT22;34221;45.296;9.516;2023-07-13T00:26:16;23.70;88.70
47813;DHT22;34221;45.296;9.516;2023-07-13T00:26:32;23.70;88.80
47813;DHT22;34221;45.296;9.516;2023-07-13T00:26:47;23.70;88.90
47813;DHT22;34221;45.296;9.516;2023-07-13T00:27:02;23.70;88.80
47813;DHT22;34221;45.296;9.516;2023-07-13T00:27:18;23.70;89.20
47813;DHT22;34221;45.296;9.516;2023-07-13T00:27:35;23.70;88.60
47813;DHT22;34221;45.296;9.516;2023-07-13T00:27:50;23.70;88.90
47813;DHT22;34221;45.296;9.516;2023-07-13T00:28:05;23.70;89.10
47813;DHT22;34221;45.296;9.516;2023-07-13T00:28:20;23.70;89.40
47813;DHT22;34221;45.296;9.516;2023-07-13T00:28:37;23.70;89.40
47813;DHT22;34221;45.296;9.516;2023-07-13T00:28:52;23.70;89.40
47813;DHT22;34221;45.296;9.516;2023-07-13T00:29:07;23.70;89.30
47813;DHT22;34221;45.296;9.516;2023-07-13T00:29:23;23.70;89.30
47813;DHT22;34221;45.296;9.516;2023-07-13T00:29:38;23.70;89.00
47813;DHT22;34221;45.296;9.516;2023-07-13T00:29:53;23.70;89.20
47813;DHT22;34221;45.296;9.516;2023-07-13T00:30:08;23.70;88.90
47813;DHT22;34221;45.296;9.516;2023-07-13T00:30:23;23.70;89.10
47813;DHT22;34221;45.296;9.516;2023-07-13T00:30:57;23.70;88.80
47813;DHT22;34221;45.296;9.516;2023-07-13T00:31:13;23.70;89.00
47813;DHT22;34221;45.296;9.516;2023-07-13T00:31:31;23.70;89.20
47813;DHT22;34221;45.296;9.516;2023-07-13T00:31:46;23.70;89.20
47813;DHT22;34221;45.296;9.516;2023-07-13T00:32:05;23.70;89.00
47813;DHT22;34221;45.296;9.516;2023-07-13T00:32:21;23.70;89.20
47813;DHT22;34221;45.296;9.516;2023-07-13T00:32:37;23.70;89.80
47813;DHT22;34221;45.296;9.516;2023-07-13T00:32:52;23.70;89.10
47813;DHT22;34221;45.296;9.516;2023-07-13T00:33:07;23.70;88.90
47813;DHT22;34221;45.296;9.516;2023-07-13T00:33:23;23.70;89.10
47813;DHT22;34221;45.296;9.516;2023-07-13T00:33:38;23.70;89.20
47813;DHT22;34221;45.296;9.516;2023-07-13T00:33:54;23.70;89.20
47813;DHT22;34221;45.296;9.516;2023-07-13T00:34:09;23.70;89.10
47813;DHT22;34221;45.296;9.516;2023-07-13T00:34:24;23.70;89.60
47813;DHT22;34221;45.296;9.516;2023-07-13T00:34:39;23.70;89.10
47813;DHT22;34221;45.296;9.516;2023-07-13T00:34:55;23.70;89.10
47813;DHT22;34221;45.296;9.516;2023-07-13T00:35:10;23.70;89.00
47813;DHT22;34221;45.296;9.516;2023-07-13T00:35:30;23.70;88.80
47813;DHT22;34221;45.296;9.516;2023-07-13T00:35:46;23.70;88.40
47813;DHT22;34221;45.296;9.516;2023-07-13T00:36:01;23.70;88.30
47813;DHT22;34221;45.296;9.516;2023-07-13T00:36:16;23.70;88.20
47813;DHT22;34221;45.296;9.516;2023-07-13T00:36:31;23.70;88.20
47813;DHT22;34221;45.296;9.516;2023-07-13T00:36:46;23.70;88.10
47813;DHT22;34221;45.296;9.516;2023-07-13T00:37:02;23.70;88.10
47813;DHT22;34221;45.296;9.516;2023-07-13T00:37:17;23.70;88.30
47813;DHT22;34221;45.296;9.516;2023-07-13T00:37:32;23.70;88.60
47813;DHT22;34221;45.296;9.516;2023-07-13T00:37:48;23.70;89.00
47813;DHT22;34221;45.296;9.516;2023-07-13T00:38:03;23.70;89.20
47813;DHT22;34221;45.296;9.516;2023-07-13T00:38:18;23.70;89.10
47813;DHT22;34221;45.296;9.516;2023-07-13T00:38:33;23.70;88.90
47813;DHT22;34221;45.296;9.516;2023-07-13T00:38:48;23.70;88.80
47813;DHT22;34221;45.296;9.516;2023-07-13T00:39:03;23.70;89.00
47813;DHT22;34221;45.296;9.516;2023-07-13T00:39:19;23.80;88.90
47813;DHT22;34221;45.296;9.516;2023-07-13T00:39:36;23.70;88.50
47813;DHT22;34221;45.296;9.516;2023-07-13T00:39:51;23.70;88.30
47813;DHT22;34221;45.296;9.516;2023-07-13T00:40:07;23.70;88.20
47813;DHT22;34221;45.296;9.516;2023-07-13T00:40:22;23.70;88.20
47813;DHT22;34221;45.296;9.516;2023-07-13T00:40:37;23.70;88.20
47813;DHT22;34221;45.296;9.516;2023-07-13T00:40:52;23.70;88.10
47813;DHT22;34221;45.296;9.516;2023-07-13T00:41:08;23.70;88.20
47813;DHT22;34221;45.296;9.516;2023-07-13T00:41:24;23.70;88.10
47813;DHT22;34221;45.296;9.516;2023-07-13T00:41:39;23.70;88.20
47813;DHT22;34221;45.296;9.516;2023-07-13T00:41:55;23.60;88.10
47813;DHT22;34221;45.296;9.516;2023-07-13T00:42:09;23.60;88.10
47813;DHT22;34221;45.296;9.516;2023-07-13T00:42:25;23.70;88.30
47813;DHT22;34221;45.296;9.516;2023-07-13T00:42:40;23.60;88.40
47813;DHT22;34221;45.296;9.516;2023-07-13T00:42:58;23.60;88.50
47813;DHT22;34221;45.296;9.516;2023-07-13T00:43:19;23.60;88.60
47813;DHT22;34221;45.296;9.516;2023-07-13T00:43:35;23.60;88.50
47813;DHT22;34221;45.296;9.516;2023-07-13T00:43:51;23.60;88.60
47813;DHT22;34221;45.296;9.516;2023-07-13T00:44:13;23.60;88.70
47813;DHT22;34221;45.296;9.516;2023-07-13T00:44:28;23.60;88.60
47813;DHT22;34221;45.296;9.516;2023-07-13T00:45:05;23.60;88.60
47813;DHT22;34221;45.296;9.516;2023-07-13T00:46:28;23.70;89.10
47813;DHT22;34221;45.296;9.516;2023-07-13T00:46:46;23.70;89.00
47813;DHT22;34221;45.296;9.516;2023-07-13T00:47:01;23.60;89.00
47813;DHT22;34221;45.296;9.516;2023-07-13T00:47:16;23.60;89.00
47813;DHT22;34221;45.296;9.516;2023-07-13T00:47:31;23.60;88.80
47813;DHT22;34221;45.296;9.516;2023-07-13T00:47:45;23.60;88.70
47813;DHT22;34221;45.296;9.516;2023-07-13T00:48:00;23.60;88.70
47813;DHT22;34221;45.296;9.516;2023-07-13T00:48:19;23.60;88.70
47813;DHT22;34221;45.296;9.516;2023-07-13T00:48:54;23.60;88.70
47813;DHT22;34221;45.296;9.516;2023-07-13T00:49:20;23.60;88.80
47813;DHT22;34221;45.296;9.516;2023-07-13T00:49:36;23.50;88.70
47813;DHT22;34221;45.296;9.516;2023-07-13T00:49:52;23.50;89.00
47813;DHT22;34221;45.296;9.516;2023-07-13T00:50:09;23.50;89.00
47813;DHT22;34221;45.296;9.516;2023-07-13T00:50:26;23.50;89.00
47813;DHT22;34221;45.296;9.516;2023-07-13T00:50:42;23.50;89.30
47813;DHT22;34221;45.296;9.516;2023-07-13T00:51:00;23.40;89.50
47813;DHT22;34221;45.296;9.516;2023-07-13T00:51:18;23.40;89.50
47813;DHT22;34221;45.296;9.516;2023-07-13T00:51:49;23.40;89.60
47813;DHT22;34221;45.296;9.516;2023-07-13T00:52:14;23.50;89.90
47813;DHT22;34221;45.296;9.516;2023-07-13T00:52:33;23.50;90.10
47813;DHT22;34221;45.296;9.516;2023-07-13T00:52:53;23.50;90.00
47813;DHT22;34221;45.296;9.516;2023-07-13T00:53:09;23.40;90.10
47813;DHT22;34221;45.296;9.516;2023-07-13T00:53:27;23.50;90.10
47813;DHT22;34221;45.296;9.516;2023-07-13T00:53:44;23.40;90.10
47813;DHT22;34221;45.296;9.516;2023-07-13T00:54:04;23.40;90.20
47813;DHT22;34221;45.296;9.516;2023-07-13T00:54:30;23.40;90.30
47813;DHT22;34221;45.296;9.516;2023-07-13T00:54:51;23.40;90.60
47813;DHT22;34221;45.296;9.516;2023-07-13T00:55:07;23.40;91.10
47813;DHT22;34221;45.296;9.516;2023-07-13T00:55:24;23.40;91.50
47813;DHT22;34221;45.296;9.516;2023-07-13T00:55:39;23.40;90.80
47813;DHT22;34221;45.296;9.516;2023-07-13T00:55:55;23.40;90.70
47813;DHT22;34221;45.296;9.516;2023-07-13T00:56:11;23.40;90.90
47813;DHT22;34221;45.296;9.516;2023-07-13T00:56:26;23.40;90.70
47813;DHT22;34221;45.296;9.516;2023-07-13T00:56:44;23.40;90.60
47813;DHT22;34221;45.296;9.516;2023-07-13T00:57:03;23.40;90.50
47813;DHT22;34221;45.296;9.516;2023-07-13T00:57:20;23.40;90.40
47813;DHT22;34221;45.296;9.516;2023-07-13T00:57:36;23.40;90.50
47813;DHT22;34221;45.296;9.516;2023-07-13T00:58:11;23.40;90.50
47813;DHT22;34221;45.296;9.516;2023-07-13T00:58:26;23.40;90.30
47813;DHT22;34221;45.296;9.516;2023-07-13T00:58:42;23.40;90.30
47813;DHT22;34221;45.296;9.516;2023-07-13T00:58:57;23.40;90.30
47813;DHT22;34221;45.296;9.516;2023-07-13T00:59:15;23.40;90.20
47813;DHT22;34221;45.296;9.516;2023-07-13T00:59:31;23.40;90.20
47813;DHT22;34221;45.296;9.516;2023-07-13T00:59:53;23.50;90.20
47813;DHT22;34221;45.296;9.516;2023-07-13T01:00:11;23.40;90.10
47813;DHT22;34221;45.296;9.516;2023-07-13T01:00:28;23.40;90.00
47813;DHT22;34221;45.296;9.516;2023-07-13T01:00:44;23.40;90.00
47813;DHT22;34221;45.296;9.516;2023-07-13T01:01:02;23.40;90.00
47813;DHT22;34221;45.296;9.516;2023-07-13T01:01:17;23.40;90.00
47813;DHT22;34221;45.296;9.516;2023-07-13T01:01:32;23.40;90.00
47813;DHT22;34221;45.296;9.516;2023-07-13T01:01:48;23.40;90.00
47813;DHT22;34221;45.296;9.516;2023-07-13T01:02:03;23.40;90.00
47813;DHT22;34221;45.296;9.516;2023-07-13T01:02:19;23.40;90.00
47813;DHT22;34221;45.296;9.516;2023-07-13T01:02:38;23.40;90.00
47813;DHT22;34221;45.296;9.516;2023-07-13T01:02:54;23.40;90.10
47813;DHT22;34221;45.296;9.516;2023-07-13T01:03:09;23.40;90.10
47813;DHT22;34221;45.296;9.516;2023-07-13T01:03:24;23.40;90.10
47813;DHT22;34221;45.296;9.516;2023-07-13T01:03:39;23.40;90.00
47813;DHT22;34221;45.296;9.516;2023-07-13T01:03:55;23.40;90.10
47813;DHT22;34221;45.296;9.516;2023-07-13T01:04:11;23.40;90.20
47813;DHT22;34221;45.296;9.516;2023-07-13T01:04:27;23.30;90.20
47813;DHT22;34221;45.296;9.516;2023-07-13T01:04:43;23.30;90.20
47813;DHT22;34221;45.296;9.516;2023-07-13T01:04:59;23.40;90.00
47813;DHT22;34221;45.296;9.516;2023-07-13T01:05:19;23.40;90.10
47813;DHT22;34221;45.296;9.516;2023-07-13T01:05:36;23.40;90.30
47813;DHT22;34221;45.296;9.516;2023-07-13T01:05:51;23.40;90.30
47813;DHT22;34221;45.296;9.516;2023-07-13T01:06:08;23.40;90.20
47813;DHT22;34221;45.296;9.516;2023-07-13T01:06:24;23.30;90.40
47813;DHT22;34221;45.296;9.516;2023-07-13T01:06:40;23.40;90.20
47813;DHT22;34221;45.296;9.516;2023-07-13T01:06:56;23.30;90.30
47813;DHT22;34221;45.296;9.516;2023-07-13T01:07:12;23.40;90.20
47813;DHT22;34221;45.296;9.516;2023-07-13T01:08:03;23.30;90.20
47813;DHT22;34221;45.296;9.516;2023-07-13T01:08:22;23.40;90.10
47813;DHT22;34221;45.296;9.516;2023-07-13T01:08:37;23.40;90.10
47813;DHT22;34221;45.296;9.516;2023-07-13T01:08:52;23.40;90.20
47813;DHT22;34221;45.296;9.516;2023-07-13T01:09:08;23.40;90.10
47813;DHT22;34221;45.296;9.516;2023-07-13T01:09:23;23.40;90.00
47813;DHT22;34221;45.296;9.516;2023-07-13T01:09:40;23.40;90.10
47813;DHT22;34221;45.296;9.516;2023-07-13T01:09:55;23.40;90.00
47813;DHT22;34221;45.296;9.516;2023-07-13T01:10:11;23.40;90.00
47813;DHT22;34221;45.296;9.516;2023-07-13T01:10:27;23.40;90.00
47813;DHT22;34221;45.296;9.516;2023-07-13T01:10:59;23.40;90.00
47813;DHT22;34221;45.296;9.516;2023-07-13T01:11:19;23.30;90.10
47813;DHT22;34221;45.296;9.516;2023-07-13T01:11:36;23.40;90.00
47813;DHT22;34221;45.296;9.516;2023-07-13T01:11:51;23.30;90.00
47813;DHT22;34221;45.296;9.516;2023-07-13T01:12:07;23.30;90.00
47813;DHT22;34221;45.296;9.516;2023-07-13T01:12:25;23.30;90.00
47813;DHT22;34221;45.296;9.516;2023-07-13T01:12:41;23.30;90.20
47813;DHT22;34221;45.296;9.516;2023-07-13T01:12:57;23.20;90.10
47813;DHT22;34221;45.296;9.516;2023-07-13T01:13:12;23.30;90.20
47813;DHT22;34221;45.296;9.516;2023-07-13T01:13:27;23.30;90.20
47813;DHT22;34221;45.296;9.516;2023-07-13T01:13:42;23.30;90.30
47813;DHT22;34221;45.296;9.516;2023-07-13T01:13:57;23.30;90.20
47813;DHT22;34221;45.296;9.516;2023-07-13T01:14:13;23.30;90.20
47813;DHT22;34221;45.296;9.516;2023-07-13T01:14:28;23.30;90.20
47813;DHT22;34221;45.296;9.516;2023-07-13T01:14:43;23.30;90.30
47813;DHT22;34221;45.296;9.516;2023-07-13T01:14:59;23.30;90.20
47813;DHT22;34221;45.296;9.516;2023-07-13T01:15:34;23.30;90.20
47813;DHT22;34221;45.296;9.516;2023-07-13T01:16:03;23.30;90.30
47813;DHT22;34221;45.296;9.516;2023-07-13T01:16:30;23.30;90.30
47813;DHT22;34221;45.296;9.516;2023-07-13T01:16:47;23.30;90.40
47813;DHT22;34221;45.296;9.516;2023-07-13T01:17:03;23.30;90.30
47813;DHT22;34221;45.296;9.516;2023-07-13T01:17:18;23.30;90.40
47813;DHT22;34221;45.296;9.516;2023-07-13T01:17:34;23.30;90.50
47813;DHT22;34221;45.296;9.516;2023-07-13T01:17:49;23.30;90.40
47813;DHT22;34221;45.296;9.516;2023-07-13T01:18:24;23.30;90.40
47813;DHT22;34221;45.296;9.516;2023-07-13T01:18:42;23.30;90.50
47813;DHT22;34221;45.296;9.516;2023-07-13T01:18:58;23.30;90.40
47813;DHT22;34221;45.296;9.516;2023-07-13T01:19:35;23.30;90.40
47813;DHT22;34221;45.296;9.516;2023-07-13T01:19:58;23.30;90.40
47813;DHT22;34221;45.296;9.516;2023-07-13T01:20:12;23.30;90.50
47813;DHT22;34221;45.296;9.516;2023-07-13T01:20:27;23.30;90.50
47813;DHT22;34221;45.296;9.516;2023-07-13T01:20:59;23.30;90.50
47813;DHT22;34221;45.296;9.516;2023-07-13T01:21:15;23.30;90.50
47813;DHT22;34221;45.296;9.516;2023-07-13T01:21:32;23.30;90.50
47813;DHT22;34221;45.296;9.516;2023-07-13T01:21:51;23.30;90.60
47813;DHT22;34221;45.296;9.516;2023-07-13T01:22:12;23.30;90.50
47813;DHT22;34221;45.296;9.516;2023-07-13T01:22:31;23.30;90.50
47813;DHT22;34221;45.296;9.516;2023-07-13T01:22:47;23.20;90.40
47813;DHT22;34221;45.296;9.516;2023-07-13T01:23:06;23.30;90.40
47813;DHT22;34221;45.296;9.516;2023-07-13T01:23:24;23.30;90.40
47813;DHT22;34221;45.296;9.516;2023-07-13T01:23:39;23.30;90.60
47813;DHT22;34221;45.296;9.516;2023-07-13T01:23:54;23.30;90.60
47813;DHT22;34221;45.296;9.516;2023-07-13T01:24:10;23.20;90.40
47813;DHT22;34221;45.296;9.516;2023-07-13T01:24:25;23.30;90.40
47813;DHT22;34221;45.296;9.516;2023-07-13T01:24:42;23.30;90.70
47813;DHT22;34221;45.296;9.516;2023-07-13T01:24:58;23.20;90.60
47813;DHT22;34221;45.296;9.516;2023-07-13T01:25:13;23.20;90.60
47813;DHT22;34221;45.296;9.516;2023-07-13T01:25:28;23.30;90.60
47813;DHT22;34221;45.296;9.516;2023-07-13T01:25:44;23.20;90.50
47813;DHT22;34221;45.296;9.516;2023-07-13T01:25:59;23.20;90.50
47813;DHT22;34221;45.296;9.516;2023-07-13T01:26:15;23.20;90.60
47813;DHT22;34221;45.296;9.516;2023-07-13T01:26:30;23.20;90.50
47813;DHT22;34221;45.296;9.516;2023-07-13T01:26:44;23.20;90.50
47813;DHT22;34221;45.296;9.516;2023-07-13T01:26:59;23.20;90.50
47813;DHT22;34221;45.296;9.516;2023-07-13T01:27:17;23.30;90.60
47813;DHT22;34221;45.296;9.516;2023-07-13T01:27:35;23.30;90.70
47813;DHT22;34221;45.296;9.516;2023-07-13T01:27:51;23.20;90.70
47813;DHT22;34221;45.296;9.516;2023-07-13T01:28:07;23.30;90.60
47813;DHT22;34221;45.296;9.516;2023-07-13T01:28:28;23.30;90.70
47813;DHT22;34221;45.296;9.516;2023-07-13T01:28:43;23.30;90.60
47813;DHT22;34221;45.296;9.516;2023-07-13T01:28:58;23.30;90.70
47813;DHT22;34221;45.296;9.516;2023-07-13T01:29:13;23.30;90.80
47813;DHT22;34221;45.296;9.516;2023-07-13T01:29:28;23.30;90.80
47813;DHT22;34221;45.296;9.516;2023-07-13T01:29:44;23.20;90.70
47813;DHT22;34221;45.296;9.516;2023-07-13T01:30:02;23.20;90.60
47813;DHT22;34221;45.296;9.516;2023-07-13T01:30:18;23.30;90.50
47813;DHT22;34221;45.296;9.516;2023-07-13T01:30:34;23.30;90.50
47813;DHT22;34221;45.296;9.516;2023-07-13T01:30:51;23.30;90.40
47813;DHT22;34221;45.296;9.516;2023-07-13T01:31:06;23.30;90.40
47813;DHT22;34221;45.296;9.516;2023-07-13T01:31:21;23.30;90.40
47813;DHT22;34221;45.296;9.516;2023-07-13T01:31:36;23.30;90.40
47813;DHT22;34221;45.296;9.516;2023-07-13T01:31:51;23.30;90.40
47813;DHT22;34221;45.296;9.516;2023-07-13T01:32:07;23.30;90.40
47813;DHT22;34221;45.296;9.516;2023-07-13T01:32:27;23.30;90.30
47813;DHT22;34221;45.296;9.516;2023-07-13T01:32:43;23.30;90.40
47813;DHT22;34221;45.296;9.516;2023-07-13T01:32:58;23.30;90.20
47813;DHT22;34221;45.296;9.516;2023-07-13T01:33:17;23.30;90.20
47813;DHT22;34221;45.296;9.516;2023-07-13T01:33:32;23.30;90.10
47813;DHT22;34221;45.296;9.516;2023-07-13T01:33:49;23.30;90.10
47813;DHT22;34221;45.296;9.516;2023-07-13T01:34:04;23.30;90.10
47813;DHT22;34221;45.296;9.516;2023-07-13T01:34:19;23.30;90.10
47813;DHT22;34221;45.296;9.516;2023-07-13T01:34:34;23.30;90.00
47813;DHT22;34221;45.296;9.516;2023-07-13T01:34:53;23.30;90.00
47813;DHT22;34221;45.296;9.516;2023-07-13T01:35:08;23.30;90.10
47813;DHT22;34221;45.296;9.516;2023-07-13T01:35:24;23.30;90.00
47813;DHT22;34221;45.296;9.516;2023-07-13T01:35:41;23.30;90.00
47813;DHT22;34221;45.296;9.516;2023-07-13T01:35:56;23.30;90.10
47813;DHT22;34221;45.296;9.516;2023-07-13T01:36:12;23.30;90.00
47813;DHT22;34221;45.296;9.516;2023-07-13T01:36:27;23.30;90.00
47813;DHT22;34221;45.296;9.516;2023-07-13T01:36:42;23.30;90.00
47813;DHT22;34221;45.296;9.516;2023-07-13T01:36:56;23.30;90.10
47813;DHT22;34221;45.296;9.516;2023-07-13T01:37:12;23.30;90.20
47813;DHT22;34221;45.296;9.516;2023-07-13T01:37:27;23.30;90.20
47813;DHT22;34221;45.296;9.516;2023-07-13T01:37:42;23.30;90.30
47813;DHT22;34221;45.296;9.516;2023-07-13T01:37:59;23.30;90.20
47813;DHT22;34221;45.296;9.516;2023-07-13T01:38:20;23.30;90.20
47813;DHT22;34221;45.296;9.516;2023-07-13T01:38:36;23.30;90.20
47813;DHT22;34221;45.296;9.516;2023-07-13T01:38:51;23.20;90.20
47813;DHT22;34221;45.296;9.516;2023-07-13T01:39:06;23.30;90.50
47813;DHT22;34221;45.296;9.516;2023-07-13T01:39:43;23.20;90.60
47813;DHT22;34221;45.296;9.516;2023-07-13T01:39:58;23.20;90.80
47813;DHT22;34221;45.296;9.516;2023-07-13T01:40:12;23.20;90.90
47813;DHT22;34221;45.296;9.516;2023-07-13T01:40:48;23.20;91.00
47813;DHT22;34221;45.296;9.516;2023-07-13T01:41:03;23.10;91.10
47813;DHT22;34221;45.296;9.516;2023-07-13T01:41:18;23.10;91.00
47813;DHT22;34221;45.296;9.516;2023-07-13T01:41:34;23.10;91.00
47813;DHT22;34221;45.296;9.516;2023-07-13T01:41:49;23.10;91.00
47813;DHT22;34221;45.296;9.516;2023-07-13T01:42:07;23.00;91.00
47813;DHT22;34221;45.296;9.516;2023-07-13T01:42:22;23.10;91.00
47813;DHT22;34221;45.296;9.516;2023-07-13T01:42:37;23.10;90.90
47813;DHT22;34221;45.296;9.516;2023-07-13T01:42:52;23.10;91.00
47813;DHT22;34221;45.296;9.516;2023-07-13T01:43:09;23.10;91.10
47813;DHT22;34221;45.296;9.516;2023-07-13T01:43:23;23.10;91.30
47813;DHT22;34221;45.296;9.516;2023-07-13T01:43:38;23.10;91.30
47813;DHT22;34221;45.296;9.516;2023-07-13T01:43:55;23.10;91.30
47813;DHT22;34221;45.296;9.516;2023-07-13T01:44:10;23.10;91.40
47813;DHT22;34221;45.296;9.516;2023-07-13T01:44:25;23.10;91.40
47813;DHT22;34221;45.296;9.516;2023-07-13T01:44:41;23.00;91.40
47813;DHT22;34221;45.296;9.516;2023-07-13T01:44:56;23.00;91.30
47813;DHT22;34221;45.296;9.516;2023-07-13T01:45:11;23.00;91.40
47813;DHT22;34221;45.296;9.516;2023-07-13T01:45:26;23.00;91.30
47813;DHT22;34221;45.296;9.516;2023-07-13T01:45:41;23.00;91.60
47813;DHT22;34221;45.296;9.516;2023-07-13T01:45:58;23.10;91.30
47813;DHT22;34221;45.296;9.516;2023-07-13T01:46:13;23.10;91.40
47813;DHT22;34221;45.296;9.516;2023-07-13T01:46:28;23.00;91.20
47813;DHT22;34221;45.296;9.516;2023-07-13T01:46:43;23.10;91.10
47813;DHT22;34221;45.296;9.516;2023-07-13T01:47:01;23.10;91.20
47813;DHT22;34221;45.296;9.516;2023-07-13T01:47:16;23.10;91.20
47813;DHT22;34221;45.296;9.516;2023-07-13T01:47:31;23.10;91.20
47813;DHT22;34221;45.296;9.516;2023-07-13T01:47:46;23.00;91.10
47813;DHT22;34221;45.296;9.516;2023-07-13T01:48:01;23.00;91.10
47813;DHT22;34221;45.296;9.516;2023-07-13T01:48:16;23.00;91.10
47813;DHT22;34221;45.296;9.516;2023-07-13T01:48:31;23.00;91.10